x

Eel River - 17nm Wsw Of Eureka, Ca (46022) Wave Buoy

6:50pm - Thu 27th Aug 2015 All times are PDT. -7 hours from GMT.

  • Sig Wave height 3.3ft
  • Swell Direction
  • Peak Period 15s
  • Average Period 9s
  • Wind
    2mph, 4mph gusts
  • Sea Temp 66°f
  • Air Temp 64°f
  • Sea Pressure 1018.5mb
  • Eel River - 17nm Wsw Of Eureka, Ca
  • Eel River - 17nm Wsw Of Eureka, Ca

More Historic Weather Station data

Upgrade to MSW Pro to gain access to the past 30 days of data for over 8000 Wavebouys and Weather Stations around the globe.

Join Pro

Comparision Forecast

View Surf forecast
   
Thu 08/27 6:50pm 3.5ft 15s 9s 2 4 mph 1018.5mb 66f 64f
5:50pm 3.5ft 15s 8s 4
mph
1019.1mb 66f 64f
4:50pm 3.5ft 15s 8s 2
mph
1019.2mb 65f 64f
3:50pm 3.5ft 16s 8s  -  2 mph 1019.4mb 62f 63f
2:50pm 3.5ft 10s 8s 2
mph
1019.7mb 63f 61f
1:50pm 3.5ft 15s 8s  -  2 mph 1019.7mb 63f 61f
12:50pm 3.5ft 15s 9s  -  2 mph 1019.6mb 62f 59f
11:50am 3.5ft 16s 9s 4 7 mph 1019.6mb 61f 58f
10:50am 3ft 15s 9s 2 4 mph 1019.2mb 60f 57f
9:50am 3.5ft 9s 9s 2 4 mph 1019mb 60f 56f
8:50am 3.5ft 16s 9s 2 4 mph 1018.9mb 60f 56f
7:50am 3.5ft 13s 9s 7
mph
1018.7mb 60f 56f
6:50am 3ft 14s 9s 4
mph
1018.7mb 60f 57f
5:50am 3.5ft 14s 9s 4 7 mph 1018.7mb 60f 58f
4:50am 3.5ft 9s 9s 7 9 mph 1018.7mb 60f 58f
3:50am 3.5ft 14s 9s 7 9 mph 1018.9mb 60f 59f
2:50am 4ft 14s 9s 7
mph
1018.8mb 60f 59f
1:50am 3.5ft 10s 9s 7
mph
1018.9mb 60f 59f
12:50am 3.5ft 16s 9s 7 9 mph 1018.6mb 60f 60f
Wed 08/26 11:50pm 3ft 14s 8s 4 7 mph 1018.5mb 60f 59f
10:50pm 3.5ft 10s 9s 7 9 mph 1018.2mb 60f 59f
9:50pm 3.5ft 10s 9s 7 9 mph 1018.5mb 61f 60f
8:50pm 3.5ft 14s 8s 7 9 mph 1018mb 61f 60f
7:50pm 3.5ft 10s 8s 7
mph
1018.1mb 61f 60f
6:50pm 3.5ft 10s 8s 4 7 mph 1018.4mb 61f 61f
5:50pm 3.5ft 10s 7s 4 7 mph 1018.4mb 61f 61f
4:50pm 3.5ft 10s 7s 4 7 mph 1018.4mb 61f 61f
3:50pm 3.5ft 10s 7s 7 9 mph 1018.4mb 60f 60f
2:50pm 3.5ft 10s 7s 9 11 mph 1018.4mb 60f 60f
1:50pm 3.5ft 10s 7s 9 11 mph 1018.2mb 60f 60f
12:50pm 3.5ft 10s 7s 7 9 mph 1018.2mb 60f 59f
11:50am 3.5ft 9s 7s 7 9 mph 1018.3mb 59f 59f
10:50am 3.5ft 10s 7s 4 7 mph 1018.1mb 58f 59f
9:50am 3.5ft 10s 7s 11 13 mph 1018.3mb 58f 58f
8:50am 3.5ft 9s 7s 7 9 mph 1018.1mb 58f 59f
7:50am 3.5ft 10s 7s 7 9 mph 1017.9mb 58f 59f
6:50am 3.5ft 10s 7s 7
mph
1017.4mb 58f 59f
5:50am 3.5ft 10s 7s 9 11 mph 1017mb 58f 59f
4:50am 3.5ft 10s 7s 7 9 mph 1016.8mb 58f 59f
3:50am 4ft 10s 7s 4 7 mph 1016.8mb 58f 58f
2:50am 4ft 10s 7s 4
mph
1016.8mb 58f 58f
1:50am 4.5ft 11s 7s 4 7 mph 1016.5mb 58f 58f
12:50am 4.5ft 11s 6s 9 11 mph 1016.4mb 58f 59f
Tue 08/25 11:50pm 4.5ft 10s 6s 13 16 mph 1016.2mb 58f 59f
10:50pm 4.5ft 11s 6s 11 13 mph 1016.4mb 58f 59f
9:50pm 4.5ft 10s 6s 11 13 mph 1016.4mb 58f 59f
8:50pm 4.5ft 10s 6s 13 16 mph 1016.3mb 59f 59f
7:50pm 4.5ft 11s 6s 11 13 mph 1015.9mb 59f 59f
6:50pm 5ft 11s 6s 13 16 mph 1016.1mb 59f 60f
5:50pm 5ft 11s 6s 13 16 mph 1016.1mb 59f 59f
4:50pm 5ft 11s 6s 13 16 mph 1016.3mb 60f 59f
3:50pm 5ft 10s 6s 13 16 mph 1016.4mb 60f 59f
2:50pm 5.5ft 11s 7s 9 11 mph 1016.7mb 60f 59f
1:50pm 5ft 11s 6s 7 9 mph 1016.7mb 60f 59f
12:50pm 5ft 11s 7s 2 4 mph 1016.8mb 60f 59f
11:50am 5.5ft 11s 7s 4 9 mph 1017mb 60f 58f
10:50am 5ft 11s 7s  -  2 mph 1016.9mb 59f 59f
9:50am 4.5ft 11s 6s 4
mph
1016.8mb 59f 58f
8:50am 4.5ft 11s 7s 4
mph
1016.9mb 58f 57f
7:50am 5ft 11s 6s 7 9 mph 1016.6mb 58f 56f
6:50am 5ft 12s 7s 9 11 mph 1016.2mb 58f 57f
5:50am 5ft 11s 7s 9 11 mph 1016mb 59f 57f
4:50am 5.5ft 12s 7s 7 9 mph 1016mb 59f 57f
3:50am 5ft 12s 7s 9 11 mph 1016.2mb 59f 57f
2:50am 5.5ft 11s 8s 4 9 mph 1016.3mb 59f 57f
1:50am 6ft 11s 8s 4 7 mph 1016.6mb 59f 58f
12:50am 5ft 11s 8s 9 11 mph 1016.9mb 59f 58f
Mon 08/24 11:50pm 6ft 12s 9s 9 13 mph 1017.3mb 59f 58f
10:50pm 5ft 13s 8s 11 16 mph 1017.3mb 59f 58f
9:50pm 5ft 12s 8s 9 13 mph 1017.5mb 59f 58f
8:50pm 5.5ft 12s 8s 9 11 mph 1017.2mb 60f 59f
7:50pm 5ft 12s 8s 4 7 mph 1017.2mb 60f 59f
6:50pm 6ft 13s 9s 2 4 mph 1017.2mb 60f 58f
5:50pm 5ft 12s 8s 4
mph
1017.5mb 60f 58f
4:50pm 4.5ft 13s 8s 7
mph
1018mb 60f 58f
3:50pm 5ft 13s 8s 7
mph
1018.2mb 60f 58f
2:50pm 4.5ft 14s 7s 7
mph
1018.5mb 60f 58f
1:50pm 4.5ft 14s 7s 9
mph
1018.4mb 59f 59f
12:50pm 4.5ft 11s 7s 9 11 mph 1018.3mb 59f 59f
11:50am 4.5ft 8s 7s 7 9 mph 1018.2mb 59f 59f
10:50am 4ft 7s 7s 9 11 mph 1018mb 59f 59f
9:50am 4ft 12s 7s 9 11 mph 1017.7mb 59f 58f
8:50am 3.5ft 8s 7s 9 11 mph 1017.4mb 59f 58f
6:50am 3.5ft 8s 7s 4 7 mph 1016.6mb 59f 57f
5:50am 3.5ft 8s 6s 7
mph
1016.2mb 59f 57f
4:50am 3.5ft 8s 7s 4 7 mph 1016.2mb 59f 57f
3:50am 3.5ft 8s 6s 2 4 mph 1016.1mb 59f 58f